LTBU/TEQ METAR and TAF weather

Enter ICAO airport designator
Station Type Date Time Source
LTBU METAR 2021/07/29 01:20 UTC NOAA

LTBU 290120Z 02003KT CAVOK 20/17 Q1015


Station Type Date Time Source
LTBU Decoded METAR 2021/07/29 01:20 UTC NOAA

Corlu, Turkey (LTBU) 41-08N 027-55E
Jul 28, 2021 - 09:20 PM EDT / 2021.07.29 0120 UTC
Wind: from the NNE (020 degrees) at 3 MPH (3 KT):0
Visibility: greater than 7 mile(s):0
Temperature: 68 F (20 C)
Dew Point: 62 F (17 C)
Relative Humidity: 82%
Pressure (altimeter): 29.97 in. Hg (1015 hPa)
ob: LTBU 290120Z 02003KT CAVOK 20/17 Q1015
cycle: 1

Station Type Date Time Source
LTBU TAF 2021/07/28 18:03 UTC NOAA

TAF LTBU 281640Z 2818/2918 02008KT CAVOK
BECMG 2906/2909 08010KT

Example: see airport list